Aérodrome :
LOGIN :

S'inscrire | Disclaimer

   EN    FR    IT 

 










Légende :    VFR   VFR Marginal   IFR   IFR Intensif   IFR Très Intensif
Visi : 
Plafond : 
>= 8 km
>= 3000ft
5 à 8 km
1000 à 3000 ft
1500m à 5 km
500 à 1000 ft
800 à 1500m
200 à 500 ft
< 800m
< 200 ft
Symboles :   Orages  Brouillard  Fortes neiges  Fortes précipitations  Vent > 20 kt
SIGMETs :   Divers  Orages  Givrage  Turbulence  Onde Orograph.  Cendres Volcan.







- Altitude de l'aérodrome : 33 ft
- Code IATA : MHZ


EGUN - RAF Mildenhall

DERNIER METAR :
  • 280636Z AUTO 01009KT 9999 RA FEW007 OVC015 14/14 A2943 RMK AO2 SLP969

METARs EXPIRÉS :
  • 280631Z AUTO 01009KT 9999 RA SCT007 OVC014 14/14 A2943 RMK AO2 CIG 007 RWY29 SLP969
  • 280611Z AUTO 02007KT 9999 RA BKN006 OVC014 14/14 A2944 RMK AO2 CIG 006V008 BKN V OVC SLP973
  • 280608Z AUTO 01009KT 9999 RA BKN007 OVC011 14/14 A2944 RMK AO2 CIG 006V008 SLP973
  • 280558Z AUTO 01008KT 9000 RA BR BKN006 OVC010 14/14 A2945 RMK AO2 SLP976 P0009 60075 T01420142 10143 20140 57017
  • 280532Z AUTO 02006KT 9000 -RA BR OVC007 14/14 A2946 RMK AO2 SLP979
  • 280517Z AUTO 02006KT 9999 -RA OVC006 14/14 A2946 RMK AO2 SLP979
  • 280458Z AUTO 02005KT 9999 RA OVC007 14/14 A2946 RMK AO2 SLP979 P0016 T01430143
  • 280451Z AUTO 01005KT 9000 -RA BR OVC007 14/14 A2946 RMK AO2 SLP979
  • 280436Z AUTO 01005KT 9000 RA BR SCT005 OVC009 14/14 A2946 RMK AO2 CIG 007V009 SLP979
  • 280421Z AUTO 01005KT 5000 RA BR SCT004 OVC007 14/14 A2947 RMK AO2 CIG 006V008 SLP983
  • 280420Z AUTO 01006KT 5000 RA BR OVC007 14/14 A2947 RMK AO2 CIG 006V008 SLP983
  • 280410Z AUTO 01006KT 6000 +RA BR OVC006 14/14 A2947 RMK AO2 CIG 006V009 SLP983
  • 280403Z AUTO 01006KT 8000 RA BR SCT005 OVC009 14/14 A2947 RMK AO2 CIG 005V009 SLP983

TAF COR TAF EGUN
Valide du 28 à 04h jusqu'au 29 à 10h UTC


280438Z 2804/2910 01012KT 5000 -RA BKN005 610809 QNH2947INS
TEMPO 2804/2807 BKN007
BECMG 2809/2810 35009KT 9999 NSW BKN006 610809 QNH2951INS
TEMPO 2812/2816 32015G20KT
BECMG 2901/2902 23012KT 9999 BKN010 610809 QNH2956INS
TEMPO 2906/2908 BKN007 TX15/2812Z TN12/2903Z
Pas de NOTAMs connus pour ce terrain.
1 SIGMET publié pour la FIR London (EGTT) :
 
Orages noyés dans la masse
EGTT SIGMET 01 VALID 280600/280800 EGRR
EGTT LONDON FIR EMBD TS OBS WI N5255 E00110 - N5348 E00110 - N5349 E00356 - N5255 E00309 - N5255 E00110 TOP FL370 MOV NNW 15KT NC=



MET'MAP, la Météo Aéronautique d'un coup d'oeil ! - Copyright ORBIFLY Décembre 2007 - Disclaimer

ORBIFLY MET'MAP TEAM :

Programmation & Développement : Alexandra Zaïnal
Conception & Développement : Baudouin d'Aumeries
Co-Programmation & Développement : Marc-Olivier Méhu
Soutien technique & logistique : Manuel Goepfert

Contact : metmap@orbifly.com




SOURCES & CREDITS :

   NOAA